Promitheas — SYIJ — position and weather

sailwx.info

Track history (hours):
 
Tides and Currents Weather Stations Pressure Air Temp Water Temp Dewpoint Dewpoint Depression Visibility Wind Speed Wind Dir Waves Ship Positions

Promitheas

Last reported at 2017-Jul-28 06:30 UTC. Time now 2017-Jul-28 06:52 UTC.
Position N 60°36' E 028°33'.

Length 249 m; draft 8.8 m.

Type: Tanker. MMSI: 240547000.

Date/timePositionNaut miles runAvg speedWind from/ knotsBaromVisibWave heightAir tempDewpointWater temp
2017-Jul-28 06:30N 60°36' E 028°33'0 0.0
2017-Jul-28 06:00N 60°36' E 028°33'0 0.0
2017-Jul-28 05:30N 60°36' E 028°33'0 0.0
2017-Jul-28 05:00N 60°36' E 028°33'0 0.0
2017-Jul-28 04:30N 60°36' E 028°33'0 0.0
2017-Jul-28 04:00N 60°36' E 028°33'0 0.0
2017-Jul-28 03:30N 60°36' E 028°33'0 0.0
2017-Jul-28 03:00N 60°36' E 028°33'0 0.0
2017-Jul-28 02:30N 60°36' E 028°33'0 0.0
2017-Jul-28 02:00N 60°36' E 028°33'0 0.0
2017-Jul-28 01:30N 60°36' E 028°33'0 0.0
2017-Jul-28 01:00N 60°36' E 028°33'0 0.0
2017-Jul-28 00:30N 60°36' E 028°33'0 0.0
2017-Jul-28 00:00N 60°36' E 028°33'0 0.0
2017-Jul-27 23:30N 60°36' E 028°33'0 0.0
2017-Jul-27 23:00N 60°36' E 028°33'0 0.0
2017-Jul-27 22:30N 60°36' E 028°33'0 0.0
2017-Jul-27 22:00N 60°36' E 028°33'0 0.0
2017-Jul-27 21:30N 60°36' E 028°33'0 0.0
2017-Jul-27 21:01N 60°36' E 028°33'0 0.0
2017-Jul-27 20:30N 60°36' E 028°33'0 0.0
2017-Jul-27 20:01N 60°36' E 028°33'0 0.0
2017-Jul-27 19:31N 60°36' E 028°33'0 0.0
2017-Jul-27 19:00N 60°36' E 028°33'0 0.0
2017-Jul-27 18:30N 60°36' E 028°33'0 0.0
2017-Jul-27 18:00N 60°36' E 028°33'0 0.0
2017-Jul-27 17:30N 60°36' E 028°33'0 0.0
2017-Jul-27 17:00N 60°36' E 028°33'0 0.0
2017-Jul-27 16:30N 60°36' E 028°33'0 0.0
2017-Jul-27 16:00N 60°36' E 028°33'0 0.0
2017-Jul-27 15:30N 60°36' E 028°33'0 0.0
2017-Jul-27 15:00N 60°36' E 028°33'0 0.0
2017-Jul-27 14:00N 60°36' E 028°33'0 0.0
2017-Jul-27 13:31N 60°36' E 028°33'0 0.0
2017-Jul-27 13:01N 60°36' E 028°33'0 0.0
2017-Jul-27 12:30N 60°36' E 028°33'0 0.1
2017-Jul-27 12:00N 60°36' E 028°33'1 2.0
2017-Jul-27 11:30N 60°35' E 028°31'3 5.1
2017-Jul-27 11:01N 60°35' E 028°26'4 7.4
2017-Jul-27 10:30N 60°32' E 028°22'5 9.5
2017-Jul-27 10:01N 60°28' E 028°18'611.5
2017-Jul-27 09:31N 60°25' E 028°08'3 6.1
2017-Jul-27 09:00N 60°23' E 028°03'3 5.3
2017-Jul-27 08:28N 60°20' E 028°01'0 0.7
2017-Jul-27 07:58N 60°20' E 028°00'0 0.0
2017-Jul-27 07:29N 60°20' E 028°00'0 0.0
2017-Jul-27 06:58N 60°20' E 028°00'0 0.0
2017-Jul-27 06:28N 60°20' E 028°00'0 0.0
2017-Jul-27 05:58N 60°20' E 028°00'0 0.0
2017-Jul-27 05:28N 60°20' E 028°00'0 0.0
2017-Jul-27 04:58N 60°20' E 028°00'0 0.0
2017-Jul-27 04:28N 60°20' E 028°00'0 0.0
2017-Jul-27 03:58N 60°20' E 028°00'0 0.0
2017-Jul-27 03:28N 60°20' E 028°00'0 0.0
2017-Jul-27 02:58N 60°20' E 028°00'0 0.0
2017-Jul-27 02:29N 60°20' E 028°00'0 0.0
2017-Jul-27 01:58N 60°20' E 028°00'0 0.0
2017-Jul-27 01:28N 60°20' E 028°00'0 0.0
2017-Jul-27 00:58N 60°20' E 028°00'0 0.0
2017-Jul-27 00:30N 60°20' E 028°00'0 0.0
2017-Jul-26 23:58N 60°20' E 028°00'0 0.0
2017-Jul-26 23:28N 60°20' E 028°00'0 0.1
2017-Jul-26 22:58N 60°20' E 028°00'0 0.1
2017-Jul-26 22:28N 60°20' E 028°01'0 0.0
2017-Jul-26 21:58N 60°20' E 028°01'0 0.0
2017-Jul-26 21:28N 60°20' E 028°01'0 0.1
2017-Jul-26 20:56N 60°20' E 028°00'0 0.2
2017-Jul-26 20:30N 60°20' E 028°00'0 0.1
2017-Jul-26 20:00N 60°20' E 028°00'0 0.0
2017-Jul-26 19:31N 60°20' E 028°00'0 0.0
2017-Jul-26 19:00N 60°20' E 028°00'0 0.1
2017-Jul-26 18:30N 60°20' E 028°00'0 0.1
2017-Jul-26 18:00N 60°20' E 028°00'0 0.0
2017-Jul-26 17:30N 60°20' E 028°00'0 0.0
2017-Jul-26 17:00N 60°20' E 028°00'0 0.0
2017-Jul-26 16:30N 60°20' E 028°00'0 0.0
2017-Jul-26 16:01N 60°20' E 028°00'0 0.0
2017-Jul-26 15:30N 60°20' E 028°00'0 0.0
2017-Jul-26 15:00N 60°20' E 028°00'0 0.0
2017-Jul-26 14:00N 60°20' E 028°00'0 0.0
2017-Jul-26 13:30N 60°20' E 028°00'0 0.0
2017-Jul-26 13:00N 60°20' E 028°00'0 0.0
2017-Jul-26 12:30N 60°20' E 028°00'0 0.0
2017-Jul-26 12:00N 60°20' E 028°00'0 0.0
2017-Jul-26 11:30N 60°20' E 028°00'0 0.0
2017-Jul-26 11:00N 60°20' E 028°00'0 0.0
2017-Jul-26 10:31N 60°20' E 028°00'0 0.0
2017-Jul-26 10:00N 60°20' E 028°00'0 0.0
2017-Jul-26 09:30N 60°20' E 028°00'0 0.0
2017-Jul-26 09:00N 60°20' E 028°00'0 0.0
2017-Jul-26 08:30N 60°20' E 028°00'0 0.0
2017-Jul-26 08:00N 60°20' E 028°00'0 0.0
2017-Jul-26 07:30N 60°20' E 028°00'0 0.0
2017-Jul-26 07:00N 60°20' E 028°00'0 0.0
2017-Jul-26 06:30N 60°20' E 028°00'0 0.0
2017-Jul-26 06:00N 60°20' E 028°00'0 0.0
2017-Jul-26 05:30N 60°20' E 028°00'0 0.0
2017-Jul-26 05:00N 60°20' E 028°00'0 0.0
2017-Jul-26 04:30N 60°20' E 028°00'0 0.0
2017-Jul-26 04:00N 60°20' E 028°00'0 0.1
2017-Jul-26 03:31N 60°20' E 028°00'0 0.1
2017-Jul-26 03:00N 60°20' E 028°00'0 0.0
2017-Jul-26 02:30N 60°20' E 028°00'0 0.0
2017-Jul-26 02:00N 60°20' E 028°00'0 0.0
2017-Jul-26 01:31N 60°20' E 028°00'0 0.0
2017-Jul-26 01:01N 60°20' E 028°00'0 0.0
2017-Jul-26 00:31N 60°20' E 028°00'0 0.1
2017-Jul-26 00:00N 60°20' E 028°00'0 0.0
2017-Jul-25 23:30N 60°20' E 028°00'0 0.0
2017-Jul-25 23:00N 60°20' E 028°00'0 0.1
2017-Jul-25 22:30N 60°20' E 028°00'0 0.1
2017-Jul-25 22:01N 60°20' E 028°00'0 0.1
2017-Jul-25 21:30N 60°20' E 028°00'0 0.1
2017-Jul-25 21:00N 60°20' E 028°00'0 0.0
2017-Jul-25 20:30N 60°20' E 028°01'0 0.1
2017-Jul-25 20:01N 60°20' E 028°01'0 0.0
2017-Jul-25 19:30N 60°20' E 028°01'0 0.0
2017-Jul-25 19:00N 60°20' E 028°01'0 0.0
2017-Jul-25 18:30N 60°20' E 028°01'0 0.1
2017-Jul-25 18:00N 60°20' E 028°01'0 0.1
2017-Jul-25 17:30N 60°20' E 028°00'0 0.1
2017-Jul-25 17:01N 60°20' E 028°00'0 0.1
2017-Jul-25 16:30N 60°20' E 028°00'0 0.1
2017-Jul-25 16:00N 60°20' E 028°00'0 0.0
2017-Jul-25 15:30N 60°20' E 028°00'0 0.0
2017-Jul-25 15:00N 60°20' E 028°00'0 0.0
2017-Jul-25 14:00N 60°20' E 028°00'0 0.0
2017-Jul-25 13:30N 60°20' E 028°00'0 0.1
2017-Jul-25 13:00N 60°20' E 028°00'0 0.1
2017-Jul-25 12:30N 60°20' E 028°00'0 0.1
2017-Jul-25 12:00N 60°20' E 028°00'0 0.0
2017-Jul-25 11:30N 60°20' E 028°00'0 0.0
2017-Jul-25 11:00N 60°20' E 028°00'0 0.0
2017-Jul-25 10:30N 60°20' E 028°00'0 0.0
2017-Jul-25 10:00N 60°20' E 028°00'0 0.0
2017-Jul-25 09:30N 60°20' E 028°00'0 0.1
2017-Jul-25 09:00N 60°20' E 028°00'0 0.2
2017-Jul-25 08:30N 60°20' E 028°00'3 6.4
2017-Jul-25 08:00N 60°18' E 027°56'510.0
2017-Jul-25 07:30N 60°14' E 027°50'5 9.4
2017-Jul-25 07:00N 60°10' E 027°44'510.0
2017-Jul-25 06:30N 60°07' E 027°35'510.1
2017-Jul-25 06:00N 60°05' E 027°27'510.1
2017-Jul-25 05:30N 60°02' E 027°18'510.1
2017-Jul-25 05:00N 59°60' E 027°09'5 9.6
2017-Jul-25 04:30N 59°58' E 027°01'510.2
2017-Jul-25 04:00N 59°59' E 026°50'510.0
2017-Jul-25 03:30N 59°59' E 026°40'510.0
2017-Jul-25 03:00N 59°58' E 026°31'5 9.9
2017-Jul-25 02:30N 59°57' E 026°21'510.0
2017-Jul-25 02:00N 59°56' E 026°12'5 9.9
2017-Jul-25 01:30N 59°54' E 026°02'5 9.7
2017-Jul-25 01:01N 59°53' E 025°53'5 9.8
2017-Jul-25 00:31N 59°52' E 025°43'510.0
2017-Jul-25 00:01N 59°51' E 025°34'510.0
2017-Jul-24 23:30N 59°50' E 025°24'5 9.8
2017-Jul-24 23:01N 59°49' E 025°14'5 9.9
2017-Jul-24 22:30N 59°48' E 025°05'510.1
2017-Jul-24 22:00N 59°47' E 024°55'510.1
2017-Jul-24 21:30N 59°45' E 024°45'510.1
2017-Jul-24 21:00N 59°45' E 024°35'611.6
2017-Jul-24 20:31N 59°43' E 024°24'4 8.9
2017-Jul-24 20:00N 59°42' E 024°15'510.5
2017-Jul-24 19:30N 59°41' E 024°06'5 9.7
2017-Jul-24 19:00N 59°39' E 023°56'5 9.9
2017-Jul-24 18:30N 59°37' E 023°47'5 9.8
2017-Jul-24 18:00N 59°36' E 023°38'5 9.6
2017-Jul-24 17:30N 59°34' E 023°29'5 9.5
2017-Jul-24 17:00N 59°32' E 023°20'5 9.8
2017-Jul-24 16:30N 59°31' E 023°11'5 9.8
2017-Jul-24 16:00N 59°29' E 023°02'3110.2
2017-Jul-24 13:01N 59°15' E 022°09'510.4
2017-Jul-24 12:30N 59°12' E 022°01'510.5
2017-Jul-24 12:00N 59°09' E 021°53'510.2
2017-Jul-24 11:30N 59°05' E 021°45'510.0
2017-Jul-24 11:00N 59°01' E 021°40'510.1
2017-Jul-24 10:31N 58°57' E 021°35'5 9.8
2017-Jul-24 10:00N 58°53' E 021°29'5 9.1
2017-Jul-24 09:30N 58°49' E 021°25'510.4
2017-Jul-24 09:00N 58°45' E 021°19'5 9.7
2017-Jul-24 08:31N 58°41' E 021°14'611.7
2017-Jul-24 08:00N 58°36' E 021°08'5 9.9
2017-Jul-24 07:30N 58°32' E 021°03'5 9.5
2017-Jul-24 07:00N 58°28' E 020°58'5 9.4
2017-Jul-24 06:30N 58°24' E 020°52'713.1
2017-Jul-24 06:00N 58°18' E 020°45'815.9
2017-Jul-24 05:30N 58°12' E 020°37'611.5
2017-Jul-24 05:00N 58°07' E 020°32'5 9.6
2017-Jul-24 04:30N 58°03' E 020°26'5 9.9
2017-Jul-24 04:00N 57°58' E 020°22'510.1
2017-Jul-24 03:30N 57°54' E 020°18'5 9.9
2017-Jul-24 03:00N 57°49' E 020°14'510.4
2017-Jul-24 02:30N 57°45' E 020°10'5 9.4
2017-Jul-24 02:00N 57°40' E 020°06'510.7
2017-Jul-24 01:31N 57°35' E 020°02'5 9.9
2017-Jul-24 01:00N 57°31' E 019°58'510.3
2017-Jul-24 00:30N 57°26' E 019°54'5 9.2
2017-Jul-24 00:00N 57°22' E 019°51'510.6
2017-Jul-23 23:31N 57°17' E 019°46'5 9.7
2017-Jul-23 23:00N 57°13' E 019°42'4 8.9
2017-Jul-23 22:30N 57°09' E 019°38'510.8
2017-Jul-23 22:00N 57°04' E 019°34'510.1
2017-Jul-23 21:30N 56°60' E 019°30'510.1
2017-Jul-23 21:00N 56°55' E 019°26'510.2
2017-Jul-23 20:30N 56°51' E 019°21'5 9.2
2017-Jul-23 20:00N 56°47' E 019°17'5 9.9
2017-Jul-23 19:29N 56°42' E 019°13'5 9.6
2017-Jul-23 19:00N 56°38' E 019°09'5 9.9
2017-Jul-23 18:30N 56°34' E 019°05'5 9.8
2017-Jul-23 18:00N 56°29' E 019°01'5 9.7
2017-Jul-23 17:26N 56°24' E 018°56'4 9.6
2017-Jul-23 17:00N 56°21' E 018°53'5 8.8
2017-Jul-23 16:26N 56°17' E 018°47'10 9.3
2017-Jul-23 15:22N 56°12' E 018°31'3 9.4
2017-Jul-23 15:00N 56°10' E 018°26'5 9.4
2017-Jul-23 14:30N 56°08' E 018°19'5 9.4
2017-Jul-23 14:00N 56°05' E 018°12'5 9.5
2017-Jul-23 13:30N 56°03' E 018°04'5 9.5
2017-Jul-23 13:00N 56°01' E 017°57'5 9.4
2017-Jul-23 12:30N 55°58' E 017°50'5 9.4
2017-Jul-23 12:00N 55°56' E 017°42'5 9.4
2017-Jul-23 11:30N 55°55' E 017°34'5 9.3
2017-Jul-23 11:00N 55°54' E 017°26'5 9.3
2017-Jul-23 10:30N 55°53' E 017°18'5 9.4
2017-Jul-23 10:00N 55°52' E 017°10'5 9.4
2017-Jul-23 09:30N 55°50' E 017°02'5 9.4
2017-Jul-23 09:00N 55°49' E 016°54'5 9.5
2017-Jul-23 08:30N 55°48' E 016°45'510.3
2017-Jul-23 08:00N 55°47' E 016°37'611.6
2017-Jul-23 07:30N 55°46' E 016°26'714.4
2017-Jul-23 07:00N 55°44' E 016°14'714.1
2017-Jul-23 06:30N 55°42' E 016°02'510.0
2017-Jul-23 06:00N 55°41' E 015°53'5 9.5
2017-Jul-23 05:30N 55°40' E 015°45'5 9.4
2017-Jul-23 05:00N 55°39' E 015°37'5 9.4
2017-Jul-23 04:30N 55°38' E 015°29'5 9.6
2017-Jul-23 04:00N 55°36' E 015°21'5 9.6
2017-Jul-23 03:30N 55°33' E 015°14'5 9.6
2017-Jul-23 03:00N 55°31' E 015°06'5 9.8
2017-Jul-23 02:30N 55°29' E 014°59'5 9.8
2017-Jul-23 02:00N 55°27' E 014°51'5 9.6
2017-Jul-23 01:30N 55°25' E 014°43'5 9.2
2017-Jul-23 01:00N 55°22' E 014°37'5 9.7
2017-Jul-23 00:30N 55°18' E 014°31'5 9.8
2017-Jul-23 00:00N 55°15' E 014°26'5 9.9
2017-Jul-22 23:30N 55°11' E 014°21'510.0
2017-Jul-22 23:00N 55°07' E 014°15'5 9.6
2017-Jul-22 22:30N 55°03' E 014°10'38 8.9
2017-Jul-22 18:14N 54°49' E 013°08'2 9.2
2017-Jul-22 17:59N 54°48' E 013°04'7 9.3
2017-Jul-22 17:17N 54°46' E 012°54'2 9.2
2017-Jul-22 17:00N 54°46' E 012°49'5 9.0
2017-Jul-22 16:30N 54°44' E 012°42'5 9.0
2017-Jul-22 16:00N 54°42' E 012°35'13 9.2
2017-Jul-22 14:34N 54°35' E 012°16'6 9.3
2017-Jul-22 13:59N 54°29' E 012°13'510.1
2017-Jul-22 13:30N 54°25' E 012°09'27 9.9
2017-Jul-22 10:43N 54°32' E 011°24'2 9.8
2017-Jul-22 10:30N 54°32' E 011°20'5 9.4
2017-Jul-22 10:00N 54°34' E 011°13'5 9.2
2017-Jul-22 09:30N 54°37' E 011°06'5 9.2
2017-Jul-22 09:00N 54°39' E 010°59'5 9.3
2017-Jul-22 08:30N 54°42' E 010°53'4 8.8
2017-Jul-22 08:00N 54°46' E 010°52'5 9.3
2017-Jul-22 07:30N 54°51' E 010°52'4 8.2
2017-Jul-22 07:00N 54°55' E 010°53'5 9.1
2017-Jul-22 06:30N 54°58' E 010°59'6 9.5
2017-Jul-22 05:51N 55°04' E 011°02'3 9.2
2017-Jul-22 05:30N 55°07' E 011°02'5 9.1
2017-Jul-22 05:00N 55°12' E 011°05'12 9.2
2017-Jul-22 03:44N 55°23' E 011°01'310.7
2017-Jul-22 03:30N 55°25' E 010°58'510.5
2017-Jul-22 03:00N 55°30' E 010°53'5 9.1
2017-Jul-22 02:29N 55°34' E 010°50'5 8.9
2017-Jul-22 01:59N 55°38' E 010°47'4 8.8
2017-Jul-22 01:30N 55°42' E 010°47'5 9.5
2017-Jul-22 01:00N 55°47' E 010°48'5 9.1
2017-Jul-22 00:29N 55°51' E 010°51'5 9.8
2017-Jul-22 00:00N 55°55' E 010°57'5 9.7
2017-Jul-21 23:30N 55°59' E 011°01'5 9.7
2017-Jul-21 22:59N 56°04' E 011°05'71 8.6
2017-Jul-21 14:44N 57°13' E 011°34'2 9.5
2017-Jul-21 14:30N 57°15' E 011°33'5 9.9
2017-Jul-21 14:00N 57°20' E 011°30'4 8.9
2017-Jul-21 13:30N 57°24' E 011°27'4 8.2
2017-Jul-21 13:00N 57°28' E 011°24'4 8.4
2017-Jul-21 12:30N 57°31' E 011°19'5 9.1
2017-Jul-21 12:00N 57°33' E 011°12'5 9.1
2017-Jul-21 11:30N 57°36' E 011°05'4 8.4
2017-Jul-21 11:00N 57°39' E 011°00'5 9.0
2017-Jul-21 10:30N 57°43' E 010°55'5 9.1
2017-Jul-21 09:59N 57°46' E 010°49'4 8.5
2017-Jul-21 09:29N 57°47' E 010°41'4 9.2
2017-Jul-21 09:00N 57°47' E 010°33'5 9.5
2017-Jul-21 08:30N 57°47' E 010°24'5 9.8
2017-Jul-21 07:58N 57°47' E 010°14'510.0
2017-Jul-21 07:29N 57°47' E 010°05'510.0
2017-Jul-21 07:00N 57°47' E 009°56'146 9.9
2017-Jul-20 16:15N 56°14' E 006°30'310.9
2017-Jul-20 15:59N 56°12' E 006°27'510.8
2017-Jul-20 15:29N 56°07' E 006°23'259 9.8
2017-Jul-19 12:58N 52°07' E 003°36'3 6.2
2017-Jul-19 12:30N 52°06' E 003°40'5 9.9
2017-Jul-19 12:00N 52°04' E 003°48'4 8.7
2017-Jul-19 11:30N 52°03' E 003°54'5 9.1
2017-Jul-19 11:00N 52°00' E 004°01'611.5
2017-Jul-19 10:30N 51°57' E 004°09'3 5.9
2017-Jul-19 10:01N 51°55' E 004°12'0 0.3
2017-Jul-19 09:30N 51°55' E 004°12'0 0.0
2017-Jul-19 09:00N 51°55' E 004°12'0 0.0
2017-Jul-19 08:30N 51°55' E 004°12'0 0.0
2017-Jul-19 08:00N 51°55' E 004°12'0 0.0
2017-Jul-19 07:30N 51°55' E 004°12'0 0.0
2017-Jul-19 07:00N 51°55' E 004°12'0 0.0
2017-Jul-19 06:30N 51°55' E 004°12'0 0.0
2017-Jul-19 06:00N 51°55' E 004°12'0 0.0
2017-Jul-19 05:30N 51°55' E 004°12'0 0.0
2017-Jul-19 05:00N 51°55' E 004°12'0 0.0
2017-Jul-19 04:30N 51°55' E 004°12'0 0.0
2017-Jul-19 04:00N 51°55' E 004°12'0 0.0
2017-Jul-19 03:30N 51°55' E 004°12'0 0.0
2017-Jul-19 03:00N 51°55' E 004°12'0 0.0
2017-Jul-19 02:30N 51°55' E 004°12'0 0.0
2017-Jul-19 01:59N 51°55' E 004°12'0 0.0
2017-Jul-19 01:30N 51°55' E 004°12'0 0.0
2017-Jul-19 01:00N 51°55' E 004°12'0 0.0
2017-Jul-19 00:30N 51°55' E 004°12'0 0.0
2017-Jul-19 00:00N 51°55' E 004°12'0 0.0
2017-Jul-18 23:30N 51°55' E 004°12'0 0.0
2017-Jul-18 23:00N 51°55' E 004°12'0 0.0
2017-Jul-18 22:30N 51°55' E 004°12'0 0.0
2017-Jul-18 22:00N 51°55' E 004°12'0 0.0
2017-Jul-18 21:30N 51°55' E 004°12'0 0.0
2017-Jul-18 21:00N 51°55' E 004°12'0 0.0
2017-Jul-18 20:30N 51°55' E 004°12'0 0.0
2017-Jul-18 20:00N 51°55' E 004°12'0 0.0
2017-Jul-18 18:15N 51°55' E 004°12'0 0.0
2017-Jul-18 18:00N 51°55' E 004°12'0 0.0
2017-Jul-18 17:30N 51°55' E 004°12'0 0.0
2017-Jul-18 17:00N 51°55' E 004°12'0 0.0
2017-Jul-18 16:30N 51°55' E 004°12'0 0.0
2017-Jul-18 16:00N 51°55' E 004°12'0 0.0
2017-Jul-18 15:30N 51°55' E 004°12'0 0.0
2017-Jul-18 15:00N 51°55' E 004°12'0 0.3
2017-Jul-18 14:00N 51°56' E 004°12'2 3.6
2017-Jul-18 13:30N 51°57' E 004°10'3 5.5
2017-Jul-18 13:00N 51°58' E 004°06'1 2.6
2017-Jul-18 12:30N 51°58' E 004°04'0 0.0
2017-Jul-18 12:00N 51°58' E 004°04'0 0.0
2017-Jul-18 11:30N 51°58' E 004°04'0 0.0
2017-Jul-18 11:01N 51°58' E 004°04'0 0.0
2017-Jul-18 10:31N 51°58' E 004°04'0 0.0
2017-Jul-18 10:00N 51°58' E 004°04'0 0.0
2017-Jul-18 09:30N 51°58' E 004°04'0 0.0
2017-Jul-18 09:00N 51°58' E 004°04'0 0.0
2017-Jul-18 08:31N 51°58' E 004°04'0 0.0
2017-Jul-18 08:00N 51°58' E 004°04'0 0.0
2017-Jul-18 07:30N 51°58' E 004°04'0 0.0
2017-Jul-18 07:01N 51°58' E 004°04'  
Track history (hours):
 
Tides and Currents Weather Stations Pressure Air Temp Water Temp Dewpoint Dewpoint Depression Visibility Wind Speed Wind Dir Waves Ship Positions

Promitheas

Last reported at 2017-Jul-28 06:30 UTC. Time now 2017-Jul-28 06:52 UTC.
Position N 60°36' E 028°33'.

Length 249 m; draft 8.8 m.

Type: Tanker. MMSI: 240547000.

Date/timePositionNaut miles runAvg speedWind from/ knotsBaromVisibWave heightAir tempDewpointWater temp
2017-Jul-28 06:30N 60°36' E 028°33'0 0.0
2017-Jul-28 06:00N 60°36' E 028°33'0 0.0
2017-Jul-28 05:30N 60°36' E 028°33'0 0.0
2017-Jul-28 05:00N 60°36' E 028°33'0 0.0
2017-Jul-28 04:30N 60°36' E 028°33'0 0.0
2017-Jul-28 04:00N 60°36' E 028°33'0 0.0
2017-Jul-28 03:30N 60°36' E 028°33'0 0.0
2017-Jul-28 03:00N 60°36' E 028°33'0 0.0
2017-Jul-28 02:30N 60°36' E 028°33'0 0.0
2017-Jul-28 02:00N 60°36' E 028°33'0 0.0
2017-Jul-28 01:30N 60°36' E 028°33'0 0.0
2017-Jul-28 01:00N 60°36' E 028°33'0 0.0
2017-Jul-28 00:30N 60°36' E 028°33'0 0.0
2017-Jul-28 00:00N 60°36' E 028°33'0 0.0
2017-Jul-27 23:30N 60°36' E 028°33'0 0.0
2017-Jul-27 23:00N 60°36' E 028°33'0 0.0
2017-Jul-27 22:30N 60°36' E 028°33'0 0.0
2017-Jul-27 22:00N 60°36' E 028°33'0 0.0
2017-Jul-27 21:30N 60°36' E 028°33'0 0.0
2017-Jul-27 21:01N 60°36' E 028°33'0 0.0
2017-Jul-27 20:30N 60°36' E 028°33'0 0.0
2017-Jul-27 20:01N 60°36' E 028°33'0 0.0
2017-Jul-27 19:31N 60°36' E 028°33'0 0.0
2017-Jul-27 19:00N 60°36' E 028°33'0 0.0
2017-Jul-27 18:30N 60°36' E 028°33'0 0.0
2017-Jul-27 18:00N 60°36' E 028°33'0 0.0
2017-Jul-27 17:30N 60°36' E 028°33'0 0.0
2017-Jul-27 17:00N 60°36' E 028°33'0 0.0
2017-Jul-27 16:30N 60°36' E 028°33'0 0.0
2017-Jul-27 16:00N 60°36' E 028°33'0 0.0
2017-Jul-27 15:30N 60°36' E 028°33'0 0.0
2017-Jul-27 15:00N 60°36' E 028°33'0 0.0
2017-Jul-27 14:00N 60°36' E 028°33'0 0.0
2017-Jul-27 13:31N 60°36' E 028°33'0 0.0
2017-Jul-27 13:01N 60°36' E 028°33'0 0.0
2017-Jul-27 12:30N 60°36' E 028°33'0 0.1
2017-Jul-27 12:00N 60°36' E 028°33'1 2.0
2017-Jul-27 11:30N 60°35' E 028°31'3 5.1
2017-Jul-27 11:01N 60°35' E 028°26'4 7.4
2017-Jul-27 10:30N 60°32' E 028°22'5 9.5
2017-Jul-27 10:01N 60°28' E 028°18'611.5
2017-Jul-27 09:31N 60°25' E 028°08'3 6.1
2017-Jul-27 09:00N 60°23' E 028°03'3 5.3
2017-Jul-27 08:28N 60°20' E 028°01'0 0.7
2017-Jul-27 07:58N 60°20' E 028°00'0 0.0
2017-Jul-27 07:29N 60°20' E 028°00'0 0.0
2017-Jul-27 06:58N 60°20' E 028°00'0 0.0
2017-Jul-27 06:28N 60°20' E 028°00'0 0.0
2017-Jul-27 05:58N 60°20' E 028°00'0 0.0
2017-Jul-27 05:28N 60°20' E 028°00'0 0.0
2017-Jul-27 04:58N 60°20' E 028°00'0 0.0
2017-Jul-27 04:28N 60°20' E 028°00'0 0.0
2017-Jul-27 03:58N 60°20' E 028°00'0 0.0
2017-Jul-27 03:28N 60°20' E 028°00'0 0.0
2017-Jul-27 02:58N 60°20' E 028°00'0 0.0
2017-Jul-27 02:29N 60°20' E 028°00'0 0.0
2017-Jul-27 01:58N 60°20' E 028°00'0 0.0
2017-Jul-27 01:28N 60°20' E 028°00'0 0.0
2017-Jul-27 00:58N 60°20' E 028°00'0 0.0
2017-Jul-27 00:30N 60°20' E 028°00'0 0.0
2017-Jul-26 23:58N 60°20' E 028°00'0 0.0
2017-Jul-26 23:28N 60°20' E 028°00'0 0.1
2017-Jul-26 22:58N 60°20' E 028°00'0 0.1
2017-Jul-26 22:28N 60°20' E 028°01'0 0.0
2017-Jul-26 21:58N 60°20' E 028°01'0 0.0
2017-Jul-26 21:28N 60°20' E 028°01'0 0.1
2017-Jul-26 20:56N 60°20' E 028°00'0 0.2
2017-Jul-26 20:30N 60°20' E 028°00'0 0.1
2017-Jul-26 20:00N 60°20' E 028°00'0 0.0
2017-Jul-26 19:31N 60°20' E 028°00'0 0.0
2017-Jul-26 19:00N 60°20' E 028°00'0 0.1
2017-Jul-26 18:30N 60°20' E 028°00'0 0.1
2017-Jul-26 18:00N 60°20' E 028°00'0 0.0
2017-Jul-26 17:30N 60°20' E 028°00'0 0.0
2017-Jul-26 17:00N 60°20' E 028°00'0 0.0
2017-Jul-26 16:30N 60°20' E 028°00'0 0.0
2017-Jul-26 16:01N 60°20' E 028°00'0 0.0
2017-Jul-26 15:30N 60°20' E 028°00'0 0.0
2017-Jul-26 15:00N 60°20' E 028°00'0 0.0
2017-Jul-26 14:00N 60°20' E 028°00'0 0.0
2017-Jul-26 13:30N 60°20' E 028°00'0 0.0
2017-Jul-26 13:00N 60°20' E 028°00'0 0.0
2017-Jul-26 12:30N 60°20' E 028°00'0 0.0
2017-Jul-26 12:00N 60°20' E 028°00'0 0.0
2017-Jul-26 11:30N 60°20' E 028°00'0 0.0
2017-Jul-26 11:00N 60°20' E 028°00'0 0.0
2017-Jul-26 10:31N 60°20' E 028°00'0 0.0
2017-Jul-26 10:00N 60°20' E 028°00'0 0.0
2017-Jul-26 09:30N 60°20' E 028°00'0 0.0
2017-Jul-26 09:00N 60°20' E 028°00'0 0.0
2017-Jul-26 08:30N 60°20' E 028°00'0 0.0
2017-Jul-26 08:00N 60°20' E 028°00'0 0.0
2017-Jul-26 07:30N 60°20' E 028°00'0 0.0
2017-Jul-26 07:00N 60°20' E 028°00'0 0.0
2017-Jul-26 06:30N 60°20' E 028°00'0 0.0
2017-Jul-26 06:00N 60°20' E 028°00'0 0.0
2017-Jul-26 05:30N 60°20' E 028°00'0 0.0
2017-Jul-26 05:00N 60°20' E 028°00'0 0.0
2017-Jul-26 04:30N 60°20' E 028°00'0 0.0
2017-Jul-26 04:00N 60°20' E 028°00'0 0.1
2017-Jul-26 03:31N 60°20' E 028°00'0 0.1
2017-Jul-26 03:00N 60°20' E 028°00'0 0.0
2017-Jul-26 02:30N 60°20' E 028°00'0 0.0
2017-Jul-26 02:00N 60°20' E 028°00'0 0.0
2017-Jul-26 01:31N 60°20' E 028°00'0 0.0
2017-Jul-26 01:01N 60°20' E 028°00'0 0.0
2017-Jul-26 00:31N 60°20' E 028°00'0 0.1
2017-Jul-26 00:00N 60°20' E 028°00'0 0.0
2017-Jul-25 23:30N 60°20' E 028°00'0 0.0
2017-Jul-25 23:00N 60°20' E 028°00'0 0.1
2017-Jul-25 22:30N 60°20' E 028°00'0 0.1
2017-Jul-25 22:01N 60°20' E 028°00'0 0.1
2017-Jul-25 21:30N 60°20' E 028°00'0 0.1
2017-Jul-25 21:00N 60°20' E 028°00'0 0.0
2017-Jul-25 20:30N 60°20' E 028°01'0 0.1
2017-Jul-25 20:01N 60°20' E 028°01'0 0.0
2017-Jul-25 19:30N 60°20' E 028°01'0 0.0
2017-Jul-25 19:00N 60°20' E 028°01'0 0.0
2017-Jul-25 18:30N 60°20' E 028°01'0 0.1
2017-Jul-25 18:00N 60°20' E 028°01'0 0.1
2017-Jul-25 17:30N 60°20' E 028°00'0 0.1
2017-Jul-25 17:01N 60°20' E 028°00'0 0.1
2017-Jul-25 16:30N 60°20' E 028°00'0 0.1
2017-Jul-25 16:00N 60°20' E 028°00'0 0.0
2017-Jul-25 15:30N 60°20' E 028°00'0 0.0
2017-Jul-25 15:00N 60°20' E 028°00'0 0.0
2017-Jul-25 14:00N 60°20' E 028°00'0 0.0
2017-Jul-25 13:30N 60°20' E 028°00'0 0.1
2017-Jul-25 13:00N 60°20' E 028°00'0 0.1
2017-Jul-25 12:30N 60°20' E 028°00'0 0.1
2017-Jul-25 12:00N 60°20' E 028°00'0 0.0
2017-Jul-25 11:30N 60°20' E 028°00'0 0.0
2017-Jul-25 11:00N 60°20' E 028°00'0 0.0
2017-Jul-25 10:30N 60°20' E 028°00'0 0.0
2017-Jul-25 10:00N 60°20' E 028°00'0 0.0
2017-Jul-25 09:30N 60°20' E 028°00'0 0.1
2017-Jul-25 09:00N 60°20' E 028°00'0 0.2
2017-Jul-25 08:30N 60°20' E 028°00'3 6.4
2017-Jul-25 08:00N 60°18' E 027°56'510.0
2017-Jul-25 07:30N 60°14' E 027°50'5 9.4
2017-Jul-25 07:00N 60°10' E 027°44'510.0
2017-Jul-25 06:30N 60°07' E 027°35'510.1
2017-Jul-25 06:00N 60°05' E 027°27'510.1
2017-Jul-25 05:30N 60°02' E 027°18'510.1
2017-Jul-25 05:00N 59°60' E 027°09'5 9.6
2017-Jul-25 04:30N 59°58' E 027°01'510.2
2017-Jul-25 04:00N 59°59' E 026°50'510.0
2017-Jul-25 03:30N 59°59' E 026°40'510.0
2017-Jul-25 03:00N 59°58' E 026°31'5 9.9
2017-Jul-25 02:30N 59°57' E 026°21'510.0
2017-Jul-25 02:00N 59°56' E 026°12'5 9.9
2017-Jul-25 01:30N 59°54' E 026°02'5 9.7
2017-Jul-25 01:01N 59°53' E 025°53'5 9.8
2017-Jul-25 00:31N 59°52' E 025°43'510.0
2017-Jul-25 00:01N 59°51' E 025°34'510.0
2017-Jul-24 23:30N 59°50' E 025°24'5 9.8
2017-Jul-24 23:01N 59°49' E 025°14'5 9.9
2017-Jul-24 22:30N 59°48' E 025°05'510.1
2017-Jul-24 22:00N 59°47' E 024°55'510.1
2017-Jul-24 21:30N 59°45' E 024°45'510.1
2017-Jul-24 21:00N 59°45' E 024°35'611.6
2017-Jul-24 20:31N 59°43' E 024°24'4 8.9
2017-Jul-24 20:00N 59°42' E 024°15'510.5
2017-Jul-24 19:30N 59°41' E 024°06'5 9.7
2017-Jul-24 19:00N 59°39' E 023°56'5 9.9
2017-Jul-24 18:30N 59°37' E 023°47'5 9.8
2017-Jul-24 18:00N 59°36' E 023°38'5 9.6
2017-Jul-24 17:30N 59°34' E 023°29'5 9.5
2017-Jul-24 17:00N 59°32' E 023°20'5 9.8
2017-Jul-24 16:30N 59°31' E 023°11'5 9.8
2017-Jul-24 16:00N 59°29' E 023°02'3110.2
2017-Jul-24 13:01N 59°15' E 022°09'510.4
2017-Jul-24 12:30N 59°12' E 022°01'510.5
2017-Jul-24 12:00N 59°09' E 021°53'510.2
2017-Jul-24 11:30N 59°05' E 021°45'510.0
2017-Jul-24 11:00N 59°01' E 021°40'510.1
2017-Jul-24 10:31N 58°57' E 021°35'5 9.8
2017-Jul-24 10:00N 58°53' E 021°29'5 9.1
2017-Jul-24 09:30N 58°49' E 021°25'510.4
2017-Jul-24 09:00N 58°45' E 021°19'5 9.7
2017-Jul-24 08:31N 58°41' E 021°14'611.7
2017-Jul-24 08:00N 58°36' E 021°08'5 9.9
2017-Jul-24 07:30N 58°32' E 021°03'5 9.5
2017-Jul-24 07:00N 58°28' E 020°58'5 9.4
2017-Jul-24 06:30N 58°24' E 020°52'713.1
2017-Jul-24 06:00N 58°18' E 020°45'815.9
2017-Jul-24 05:30N 58°12' E 020°37'611.5
2017-Jul-24 05:00N 58°07' E 020°32'5 9.6
2017-Jul-24 04:30N 58°03' E 020°26'5 9.9
2017-Jul-24 04:00N 57°58' E 020°22'510.1
2017-Jul-24 03:30N 57°54' E 020°18'5 9.9
2017-Jul-24 03:00N 57°49' E 020°14'510.4
2017-Jul-24 02:30N 57°45' E 020°10'5 9.4
2017-Jul-24 02:00N 57°40' E 020°06'510.7
2017-Jul-24 01:31N 57°35' E 020°02'5 9.9
2017-Jul-24 01:00N 57°31' E 019°58'510.3
2017-Jul-24 00:30N 57°26' E 019°54'5 9.2
2017-Jul-24 00:00N 57°22' E 019°51'510.6
2017-Jul-23 23:31N 57°17' E 019°46'5 9.7
2017-Jul-23 23:00N 57°13' E 019°42'4 8.9
2017-Jul-23 22:30N 57°09' E 019°38'510.8
2017-Jul-23 22:00N 57°04' E 019°34'510.1
2017-Jul-23 21:30N 56°60' E 019°30'510.1
2017-Jul-23 21:00N 56°55' E 019°26'510.2
2017-Jul-23 20:30N 56°51' E 019°21'5 9.2
2017-Jul-23 20:00N 56°47' E 019°17'5 9.9
2017-Jul-23 19:29N 56°42' E 019°13'5 9.6
2017-Jul-23 19:00N 56°38' E 019°09'5 9.9
2017-Jul-23 18:30N 56°34' E 019°05'5 9.8
2017-Jul-23 18:00N 56°29' E 019°01'5 9.7
2017-Jul-23 17:26N 56°24' E 018°56'4 9.6
2017-Jul-23 17:00N 56°21' E 018°53'5 8.8
2017-Jul-23 16:26N 56°17' E 018°47'10 9.3
2017-Jul-23 15:22N 56°12' E 018°31'3 9.4
2017-Jul-23 15:00N 56°10' E 018°26'5 9.4
2017-Jul-23 14:30N 56°08' E 018°19'5 9.4
2017-Jul-23 14:00N 56°05' E 018°12'5 9.5
2017-Jul-23 13:30N 56°03' E 018°04'5 9.5
2017-Jul-23 13:00N 56°01' E 017°57'5 9.4
2017-Jul-23 12:30N 55°58' E 017°50'5 9.4
2017-Jul-23 12:00N 55°56' E 017°42'5 9.4
2017-Jul-23 11:30N 55°55' E 017°34'5 9.3
2017-Jul-23 11:00N 55°54' E 017°26'5 9.3
2017-Jul-23 10:30N 55°53' E 017°18'5 9.4
2017-Jul-23 10:00N 55°52' E 017°10'5 9.4
2017-Jul-23 09:30N 55°50' E 017°02'5 9.4
2017-Jul-23 09:00N 55°49' E 016°54'5 9.5
2017-Jul-23 08:30N 55°48' E 016°45'510.3
2017-Jul-23 08:00N 55°47' E 016°37'611.6
2017-Jul-23 07:30N 55°46' E 016°26'714.4
2017-Jul-23 07:00N 55°44' E 016°14'714.1
2017-Jul-23 06:30N 55°42' E 016°02'510.0
2017-Jul-23 06:00N 55°41' E 015°53'5 9.5
2017-Jul-23 05:30N 55°40' E 015°45'5 9.4
2017-Jul-23 05:00N 55°39' E 015°37'5 9.4
2017-Jul-23 04:30N 55°38' E 015°29'5 9.6
2017-Jul-23 04:00N 55°36' E 015°21'5 9.6
2017-Jul-23 03:30N 55°33' E 015°14'5 9.6
2017-Jul-23 03:00N 55°31' E 015°06'5 9.8
2017-Jul-23 02:30N 55°29' E 014°59'5 9.8
2017-Jul-23 02:00N 55°27' E 014°51'5 9.6
2017-Jul-23 01:30N 55°25' E 014°43'5 9.2
2017-Jul-23 01:00N 55°22' E 014°37'5 9.7
2017-Jul-23 00:30N 55°18' E 014°31'5 9.8
2017-Jul-23 00:00N 55°15' E 014°26'5 9.9
2017-Jul-22 23:30N 55°11' E 014°21'510.0
2017-Jul-22 23:00N 55°07' E 014°15'5 9.6
2017-Jul-22 22:30N 55°03' E 014°10'38 8.9
2017-Jul-22 18:14N 54°49' E 013°08'2 9.2
2017-Jul-22 17:59N 54°48' E 013°04'7 9.3
2017-Jul-22 17:17N 54°46' E 012°54'2 9.2
2017-Jul-22 17:00N 54°46' E 012°49'5 9.0
2017-Jul-22 16:30N 54°44' E 012°42'5 9.0
2017-Jul-22 16:00N 54°42' E 012°35'13 9.2
2017-Jul-22 14:34N 54°35' E 012°16'6 9.3
2017-Jul-22 13:59N 54°29' E 012°13'510.1
2017-Jul-22 13:30N 54°25' E 012°09'27 9.9
2017-Jul-22 10:43N 54°32' E 011°24'2 9.8
2017-Jul-22 10:30N 54°32' E 011°20'5 9.4
2017-Jul-22 10:00N 54°34' E 011°13'5 9.2
2017-Jul-22 09:30N 54°37' E 011°06'5 9.2
2017-Jul-22 09:00N 54°39' E 010°59'5 9.3
2017-Jul-22 08:30N 54°42' E 010°53'4 8.8
2017-Jul-22 08:00N 54°46' E 010°52'5 9.3
2017-Jul-22 07:30N 54°51' E 010°52'4 8.2
2017-Jul-22 07:00N 54°55' E 010°53'5 9.1
2017-Jul-22 06:30N 54°58' E 010°59'6 9.5
2017-Jul-22 05:51N 55°04' E 011°02'3 9.2
2017-Jul-22 05:30N 55°07' E 011°02'5 9.1
2017-Jul-22 05:00N 55°12' E 011°05'12 9.2
2017-Jul-22 03:44N 55°23' E 011°01'310.7
2017-Jul-22 03:30N 55°25' E 010°58'510.5
2017-Jul-22 03:00N 55°30' E 010°53'5 9.1
2017-Jul-22 02:29N 55°34' E 010°50'5 8.9
2017-Jul-22 01:59N 55°38' E 010°47'4 8.8
2017-Jul-22 01:30N 55°42' E 010°47'5 9.5
2017-Jul-22 01:00N 55°47' E 010°48'5 9.1
2017-Jul-22 00:29N 55°51' E 010°51'5 9.8
2017-Jul-22 00:00N 55°55' E 010°57'5 9.7
2017-Jul-21 23:30N 55°59' E 011°01'5 9.7
2017-Jul-21 22:59N 56°04' E 011°05'71 8.6
2017-Jul-21 14:44N 57°13' E 011°34'2 9.5
2017-Jul-21 14:30N 57°15' E 011°33'5 9.9
2017-Jul-21 14:00N 57°20' E 011°30'4 8.9
2017-Jul-21 13:30N 57°24' E 011°27'4 8.2
2017-Jul-21 13:00N 57°28' E 011°24'4 8.4
2017-Jul-21 12:30N 57°31' E 011°19'5 9.1
2017-Jul-21 12:00N 57°33' E 011°12'5 9.1
2017-Jul-21 11:30N 57°36' E 011°05'4 8.4
2017-Jul-21 11:00N 57°39' E 011°00'5 9.0
2017-Jul-21 10:30N 57°43' E 010°55'5 9.1
2017-Jul-21 09:59N 57°46' E 010°49'4 8.5
2017-Jul-21 09:29N 57°47' E 010°41'4 9.2
2017-Jul-21 09:00N 57°47' E 010°33'5 9.5
2017-Jul-21 08:30N 57°47' E 010°24'5 9.8
2017-Jul-21 07:58N 57°47' E 010°14'510.0
2017-Jul-21 07:29N 57°47' E 010°05'510.0
2017-Jul-21 07:00N 57°47' E 009°56'146 9.9
2017-Jul-20 16:15N 56°14' E 006°30'310.9
2017-Jul-20 15:59N 56°12' E 006°27'510.8
2017-Jul-20 15:29N 56°07' E 006°23'259 9.8
2017-Jul-19 12:58N 52°07' E 003°36'3 6.2
2017-Jul-19 12:30N 52°06' E 003°40'5 9.9
2017-Jul-19 12:00N 52°04' E 003°48'4 8.7
2017-Jul-19 11:30N 52°03' E 003°54'5 9.1
2017-Jul-19 11:00N 52°00' E 004°01'611.5
2017-Jul-19 10:30N 51°57' E 004°09'3 5.9
2017-Jul-19 10:01N 51°55' E 004°12'0 0.3
2017-Jul-19 09:30N 51°55' E 004°12'0 0.0
2017-Jul-19 09:00N 51°55' E 004°12'0 0.0
2017-Jul-19 08:30N 51°55' E 004°12'0 0.0
2017-Jul-19 08:00N 51°55' E 004°12'0 0.0
2017-Jul-19 07:30N 51°55' E 004°12'0 0.0
2017-Jul-19 07:00N 51°55' E 004°12'0 0.0
2017-Jul-19 06:30N 51°55' E 004°12'0 0.0
2017-Jul-19 06:00N 51°55' E 004°12'0 0.0
2017-Jul-19 05:30N 51°55' E 004°12'0 0.0
2017-Jul-19 05:00N 51°55' E 004°12'0 0.0
2017-Jul-19 04:30N 51°55' E 004°12'0 0.0
2017-Jul-19 04:00N 51°55' E 004°12'0 0.0
2017-Jul-19 03:30N 51°55' E 004°12'0 0.0
2017-Jul-19 03:00N 51°55' E 004°12'0 0.0
2017-Jul-19 02:30N 51°55' E 004°12'0 0.0
2017-Jul-19 01:59N 51°55' E 004°12'0 0.0
2017-Jul-19 01:30N 51°55' E 004°12'0 0.0
2017-Jul-19 01:00N 51°55' E 004°12'0 0.0
2017-Jul-19 00:30N 51°55' E 004°12'0 0.0
2017-Jul-19 00:00N 51°55' E 004°12'0 0.0
2017-Jul-18 23:30N 51°55' E 004°12'0 0.0
2017-Jul-18 23:00N 51°55' E 004°12'0 0.0
2017-Jul-18 22:30N 51°55' E 004°12'0 0.0
2017-Jul-18 22:00N 51°55' E 004°12'0 0.0
2017-Jul-18 21:30N 51°55' E 004°12'0 0.0
2017-Jul-18 21:00N 51°55' E 004°12'0 0.0
2017-Jul-18 20:30N 51°55' E 004°12'0 0.0
2017-Jul-18 20:00N 51°55' E 004°12'0 0.0
2017-Jul-18 18:15N 51°55' E 004°12'0 0.0
2017-Jul-18 18:00N 51°55' E 004°12'0 0.0
2017-Jul-18 17:30N 51°55' E 004°12'0 0.0
2017-Jul-18 17:00N 51°55' E 004°12'0 0.0
2017-Jul-18 16:30N 51°55' E 004°12'0 0.0
2017-Jul-18 16:00N 51°55' E 004°12'0 0.0
2017-Jul-18 15:30N 51°55' E 004°12'0 0.0
2017-Jul-18 15:00N 51°55' E 004°12'0 0.3
2017-Jul-18 14:00N 51°56' E 004°12'2 3.6
2017-Jul-18 13:30N 51°57' E 004°10'3 5.5
2017-Jul-18 13:00N 51°58' E 004°06'1 2.6
2017-Jul-18 12:30N 51°58' E 004°04'0 0.0
2017-Jul-18 12:00N 51°58' E 004°04'0 0.0
2017-Jul-18 11:30N 51°58' E 004°04'0 0.0
2017-Jul-18 11:01N 51°58' E 004°04'0 0.0
2017-Jul-18 10:31N 51°58' E 004°04'0 0.0
2017-Jul-18 10:00N 51°58' E 004°04'0 0.0
2017-Jul-18 09:30N 51°58' E 004°04'0 0.0
2017-Jul-18 09:00N 51°58' E 004°04'0 0.0
2017-Jul-18 08:31N 51°58' E 004°04'0 0.0
2017-Jul-18 08:00N 51°58' E 004°04'0 0.0
2017-Jul-18 07:30N 51°58' E 004°04'0 0.0
2017-Jul-18 07:01N 51°58' E 004°04'  

Dump ship's entire track history